sensor_id;sensor_type;location;lat;lon;timestamp;pressure;altitude;pressure_sealevel;temperature;humidity
28628;BME280;15815;46.760;19.604;2022-08-26T00:01:57;99937.50;;;22.79;82.48
28628;BME280;15815;46.760;19.604;2022-08-26T00:04:23;99936.41;;;22.77;82.47
28628;BME280;15815;46.760;19.604;2022-08-26T00:06:50;99931.38;;;22.72;82.64
28628;BME280;15815;46.760;19.604;2022-08-26T00:09:15;99933.66;;;22.68;82.75
28628;BME280;15815;46.760;19.604;2022-08-26T00:11:41;99934.66;;;22.65;82.63
28628;BME280;15815;46.760;19.604;2022-08-26T00:14:06;99934.06;;;22.61;83.03
28628;BME280;15815;46.760;19.604;2022-08-26T00:16:31;99931.41;;;22.57;82.61
28628;BME280;15815;46.760;19.604;2022-08-26T00:18:57;99930.84;;;22.53;82.53
28628;BME280;15815;46.760;19.604;2022-08-26T00:21:22;99928.97;;;22.50;82.37
28628;BME280;15815;46.760;19.604;2022-08-26T00:23:48;99934.09;;;22.46;82.30
28628;BME280;15815;46.760;19.604;2022-08-26T00:26:14;99933.00;;;22.43;82.43
28628;BME280;15815;46.760;19.604;2022-08-26T00:28:40;99946.75;;;22.39;82.49
28628;BME280;15815;46.760;19.604;2022-08-26T00:31:06;99940.44;;;22.35;82.61
28628;BME280;15815;46.760;19.604;2022-08-26T00:33:31;99936.69;;;22.29;82.70
28628;BME280;15815;46.760;19.604;2022-08-26T00:35:57;99938.97;;;22.25;82.62
28628;BME280;15815;46.760;19.604;2022-08-26T00:38:22;99937.88;;;22.23;82.10
28628;BME280;15815;46.760;19.604;2022-08-26T00:40:51;99944.59;;;22.19;81.81
28628;BME280;15815;46.760;19.604;2022-08-26T00:43:17;99937.47;;;22.15;81.97
28628;BME280;15815;46.760;19.604;2022-08-26T00:45:51;99941.31;;;22.12;81.72
28628;BME280;15815;46.760;19.604;2022-08-26T00:48:21;99935.31;;;22.10;81.55
28628;BME280;15815;46.760;19.604;2022-08-26T00:50:57;99931.38;;;22.07;81.81
28628;BME280;15815;46.760;19.604;2022-08-26T00:53:27;99926.63;;;22.04;81.79
28628;BME280;15815;46.760;19.604;2022-08-26T00:56:03;99933.81;;;22.00;81.98
28628;BME280;15815;46.760;19.604;2022-08-26T00:58:31;99932.91;;;21.94;82.42
28628;BME280;15815;46.760;19.604;2022-08-26T01:00:58;99925.50;;;21.87;81.94
28628;BME280;15815;46.760;19.604;2022-08-26T01:03:25;99934.97;;;21.78;81.79
28628;BME280;15815;46.760;19.604;2022-08-26T01:05:54;99936.94;;;21.72;82.11
28628;BME280;15815;46.760;19.604;2022-08-26T01:08:21;99944.13;;;21.68;83.07
28628;BME280;15815;46.760;19.604;2022-08-26T01:10:47;99954.00;;;21.67;83.39
28628;BME280;15815;46.760;19.604;2022-08-26T01:13:12;99955.94;;;21.60;82.72
28628;BME280;15815;46.760;19.604;2022-08-26T01:15:51;99945.47;;;21.57;83.49
28628;BME280;15815;46.760;19.604;2022-08-26T01:18:18;99956.31;;;21.53;83.36
28628;BME280;15815;46.760;19.604;2022-08-26T01:20:56;99947.91;;;21.50;83.49
28628;BME280;15815;46.760;19.604;2022-08-26T01:23:31;99947.31;;;21.46;83.04
28628;BME280;15815;46.760;19.604;2022-08-26T01:26:03;99929.88;;;21.44;83.25
28628;BME280;15815;46.760;19.604;2022-08-26T01:28:31;99929.88;;;21.44;82.89
28628;BME280;15815;46.760;19.604;2022-08-26T01:30:59;99933.22;;;21.42;82.79
28628;BME280;15815;46.760;19.604;2022-08-26T01:33:34;99935.78;;;21.40;82.34
28628;BME280;15815;46.760;19.604;2022-08-26T01:36:02;99937.56;;;21.38;82.37
28628;BME280;15815;46.760;19.604;2022-08-26T01:38:27;99932.78;;;21.35;82.35
28628;BME280;15815;46.760;19.604;2022-08-26T01:40:53;99930.91;;;21.32;82.52
28628;BME280;15815;46.760;19.604;2022-08-26T01:43:22;99930.59;;;21.29;82.54
28628;BME280;15815;46.760;19.604;2022-08-26T01:45:50;99927.94;;;21.26;82.60
28628;BME280;15815;46.760;19.604;2022-08-26T01:48:23;99926.50;;;21.21;82.26
28628;BME280;15815;46.760;19.604;2022-08-26T01:50:50;99925.91;;;21.17;82.16
28628;BME280;15815;46.760;19.604;2022-08-26T01:53:17;99926.88;;;21.14;82.28
28628;BME280;15815;46.760;19.604;2022-08-26T01:55:47;99921.84;;;21.09;82.55
28628;BME280;15815;46.760;19.604;2022-08-26T01:58:22;99924.38;;;21.07;82.45
28628;BME280;15815;46.760;19.604;2022-08-26T02:00:49;99922.97;;;21.03;82.50
28628;BME280;15815;46.760;19.604;2022-08-26T02:03:15;99921.88;;;21.00;82.41
28628;BME280;15815;46.760;19.604;2022-08-26T02:05:55;99919.72;;;20.95;82.51
28628;BME280;15815;46.760;19.604;2022-08-26T02:08:25;99918.44;;;20.96;82.64
28628;BME280;15815;46.760;19.604;2022-08-26T02:10:53;99918.44;;;20.96;82.50
28628;BME280;15815;46.760;19.604;2022-08-26T02:13:19;99916.25;;;20.91;82.39
28628;BME280;15815;46.760;19.604;2022-08-26T02:15:45;99915.47;;;20.90;82.46
28628;BME280;15815;46.760;19.604;2022-08-26T02:18:11;99913.09;;;20.89;82.41
28628;BME280;15815;46.760;19.604;2022-08-26T02:20:36;99908.34;;;20.86;82.41
28628;BME280;15815;46.760;19.604;2022-08-26T02:23:03;99914.56;;;20.84;82.46
28628;BME280;15815;46.760;19.604;2022-08-26T02:25:42;99910.59;;;20.82;82.06
28628;BME280;15815;46.760;19.604;2022-08-26T02:28:10;99905.34;;;20.80;82.64
28628;BME280;15815;46.760;19.604;2022-08-26T02:30:37;99905.03;;;20.78;82.80
28628;BME280;15815;46.760;19.604;2022-08-26T02:33:04;99908.09;;;20.75;82.87
28628;BME280;15815;46.760;19.604;2022-08-26T02:35:31;99910.63;;;20.73;83.03
28628;BME280;15815;46.760;19.604;2022-08-26T02:37:57;99913.19;;;20.71;83.26
28628;BME280;15815;46.760;19.604;2022-08-26T02:40:31;99917.31;;;20.70;83.05
28628;BME280;15815;46.760;19.604;2022-08-26T02:42:57;99914.16;;;20.67;83.23
28628;BME280;15815;46.760;19.604;2022-08-26T02:45:24;99918.28;;;20.66;82.71
28628;BME280;15815;46.760;19.604;2022-08-26T02:47:50;99912.28;;;20.64;83.13
28628;BME280;15815;46.760;19.604;2022-08-26T02:50:16;99911.97;;;20.62;83.31
28628;BME280;15815;46.760;19.604;2022-08-26T02:52:41;99910.09;;;20.59;83.41
28628;BME280;15815;46.760;19.604;2022-08-26T02:55:07;99908.19;;;20.56;83.61
28628;BME280;15815;46.760;19.604;2022-08-26T02:57:32;99905.00;;;20.54;83.56
28628;BME280;15815;46.760;19.604;2022-08-26T02:59:59;99913.25;;;20.52;83.49
28628;BME280;15815;46.760;19.604;2022-08-26T03:02:26;99910.09;;;20.50;84.01
28628;BME280;15815;46.760;19.604;2022-08-26T03:04:51;99902.03;;;20.49;84.08
28628;BME280;15815;46.760;19.604;2022-08-26T03:07:17;99914.72;;;20.48;84.05
28628;BME280;15815;46.760;19.604;2022-08-26T03:09:43;99911.06;;;20.47;84.15
28628;BME280;15815;46.760;19.604;2022-08-26T03:12:09;99917.56;;;20.48;84.36
28628;BME280;15815;46.760;19.604;2022-08-26T03:14:34;99912.66;;;20.48;84.41
28628;BME280;15815;46.760;19.604;2022-08-26T03:17:00;99915.03;;;20.50;84.47
28628;BME280;15815;46.760;19.604;2022-08-26T03:19:25;99908.53;;;20.49;84.31
28628;BME280;15815;46.760;19.604;2022-08-26T03:21:51;99901.22;;;20.48;84.14
28628;BME280;15815;46.760;19.604;2022-08-26T03:24:18;99905.84;;;20.46;84.30
28628;BME280;15815;46.760;19.604;2022-08-26T03:26:44;99898.25;;;20.43;84.23
28628;BME280;15815;46.760;19.604;2022-08-26T03:29:09;99898.41;;;20.39;84.43
28628;BME280;15815;46.760;19.604;2022-08-26T03:31:53;99898.41;;;20.39;84.65
28628;BME280;15815;46.760;19.604;2022-08-26T03:34:19;99891.44;;;20.40;84.45
28628;BME280;15815;46.760;19.604;2022-08-26T03:36:44;99895.88;;;20.41;84.93
28628;BME280;15815;46.760;19.604;2022-08-26T03:39:12;99899.19;;;20.40;84.73
28628;BME280;15815;46.760;19.604;2022-08-26T03:41:38;99895.88;;;20.41;84.39
28628;BME280;15815;46.760;19.604;2022-08-26T03:44:05;99886.53;;;20.41;84.29
28628;BME280;15815;46.760;19.604;2022-08-26T03:46:33;99891.75;;;20.42;84.27
28628;BME280;15815;46.760;19.604;2022-08-26T03:48:59;99896.97;;;20.44;84.02
28628;BME280;15815;46.760;19.604;2022-08-26T03:51:25;99893.16;;;20.47;83.32
28628;BME280;15815;46.760;19.604;2022-08-26T03:53:50;99897.09;;;20.49;83.36
28628;BME280;15815;46.760;19.604;2022-08-26T03:56:16;99897.41;;;20.51;82.97
28628;BME280;15815;46.760;19.604;2022-08-26T03:58:41;99896.44;;;20.54;82.83
28628;BME280;15815;46.760;19.604;2022-08-26T04:01:09;99893.59;;;20.54;82.37
28628;BME280;15815;46.760;19.604;2022-08-26T04:03:35;99896.78;;;20.56;82.31
28628;BME280;15815;46.760;19.604;2022-08-26T04:06:19;99898.84;;;20.56;82.58
28628;BME280;15815;46.760;19.604;2022-08-26T04:08:44;99895.50;;;20.57;82.60
28628;BME280;15815;46.760;19.604;2022-08-26T04:11:18;99900.72;;;20.59;82.59
28628;BME280;15815;46.760;19.604;2022-08-26T04:13:46;99890.88;;;20.60;82.89
28628;BME280;15815;46.760;19.604;2022-08-26T04:16:12;99899.94;;;20.58;82.58
28628;BME280;15815;46.760;19.604;2022-08-26T04:18:38;99899.94;;;20.58;82.84
28628;BME280;15815;46.760;19.604;2022-08-26T04:21:07;99904.38;;;20.59;82.99
28628;BME280;15815;46.760;19.604;2022-08-26T04:23:33;99903.41;;;20.62;82.87
28628;BME280;15815;46.760;19.604;2022-08-26T04:25:59;99897.03;;;20.67;83.11
28628;BME280;15815;46.760;19.604;2022-08-26T04:28:26;99900.00;;;20.73;82.81
28628;BME280;15815;46.760;19.604;2022-08-26T04:30:52;99902.97;;;20.79;82.40
28628;BME280;15815;46.760;19.604;2022-08-26T04:33:18;99906.28;;;20.86;81.88
28628;BME280;15815;46.760;19.604;2022-08-26T04:35:43;99894.97;;;20.92;81.47
28628;BME280;15815;46.760;19.604;2022-08-26T04:38:10;99907.59;;;21.00;81.15
28628;BME280;15815;46.760;19.604;2022-08-26T04:40:35;99897.38;;;21.08;80.35
28628;BME280;15815;46.760;19.604;2022-08-26T04:43:01;99894.47;;;21.17;79.81
28628;BME280;15815;46.760;19.604;2022-08-26T04:45:26;99900.16;;;21.26;79.08
28628;BME280;15815;46.760;19.604;2022-08-26T04:47:54;99899.09;;;21.39;78.95
28628;BME280;15815;46.760;19.604;2022-08-26T04:50:20;99896.94;;;21.48;78.97
28628;BME280;15815;46.760;19.604;2022-08-26T04:52:47;99905.44;;;21.57;78.77
28628;BME280;15815;46.760;19.604;2022-08-26T04:55:13;99899.16;;;21.68;77.87
28628;BME280;15815;46.760;19.604;2022-08-26T04:57:39;99899.34;;;21.79;77.12
28628;BME280;15815;46.760;19.604;2022-08-26T05:00:07;99897.78;;;21.93;76.40
28628;BME280;15815;46.760;19.604;2022-08-26T05:02:32;99904.03;;;22.06;76.05
28628;BME280;15815;46.760;19.604;2022-08-26T05:04:58;99912.00;;;22.17;75.67
28628;BME280;15815;46.760;19.604;2022-08-26T05:07:23;99912.72;;;22.27;74.78
28628;BME280;15815;46.760;19.604;2022-08-26T05:09:49;99901.44;;;22.38;74.63
28628;BME280;15815;46.760;19.604;2022-08-26T05:12:14;99906.84;;;22.50;74.72
28628;BME280;15815;46.760;19.604;2022-08-26T05:14:39;99906.78;;;22.65;73.74
28628;BME280;15815;46.760;19.604;2022-08-26T05:17:05;99906.75;;;22.80;73.45
28628;BME280;15815;46.760;19.604;2022-08-26T05:19:31;99908.31;;;22.96;72.15
28628;BME280;15815;46.760;19.604;2022-08-26T05:21:56;99905.16;;;23.14;70.91
28628;BME280;15815;46.760;19.604;2022-08-26T05:24:22;99908.75;;;23.29;69.30
28628;BME280;15815;46.760;19.604;2022-08-26T05:26:47;99914.13;;;23.42;68.56
28628;BME280;15815;46.760;19.604;2022-08-26T05:29:13;99914.75;;;23.52;68.02
28628;BME280;15815;46.760;19.604;2022-08-26T05:31:39;99913.56;;;23.58;67.92
28628;BME280;15815;46.760;19.604;2022-08-26T05:34:04;99911.53;;;23.64;67.31
28628;BME280;15815;46.760;19.604;2022-08-26T05:36:31;99913.69;;;23.69;66.58
28628;BME280;15815;46.760;19.604;2022-08-26T05:38:58;99915.81;;;23.74;66.64
28628;BME280;15815;46.760;19.604;2022-08-26T05:41:27;99917.66;;;23.78;66.42
28628;BME280;15815;46.760;19.604;2022-08-26T05:43:55;99925.25;;;23.81;66.17
28628;BME280;15815;46.760;19.604;2022-08-26T05:46:21;99921.41;;;23.84;66.09
28628;BME280;15815;46.760;19.604;2022-08-26T05:48:47;99925.84;;;23.85;65.64
28628;BME280;15815;46.760;19.604;2022-08-26T05:51:13;99918.81;;;23.86;65.84
28628;BME280;15815;46.760;19.604;2022-08-26T05:53:40;99924.28;;;23.84;66.02
28628;BME280;15815;46.760;19.604;2022-08-26T05:56:07;99935.25;;;23.85;65.94
28628;BME280;15815;46.760;19.604;2022-08-26T05:58:34;99923.25;;;23.87;65.88
28628;BME280;15815;46.760;19.604;2022-08-26T06:03:30;99933.78;;;23.95;65.52
28628;BME280;15815;46.760;19.604;2022-08-26T06:05:56;99922.34;;;24.01;65.94
28628;BME280;15815;46.760;19.604;2022-08-26T06:11:08;99925.78;;;24.31;65.03
28628;BME280;15815;46.760;19.604;2022-08-26T06:13:35;99926.16;;;24.44;64.46
28628;BME280;15815;46.760;19.604;2022-08-26T06:16:04;99937.03;;;24.66;65.21
28628;BME280;15815;46.760;19.604;2022-08-26T06:18:32;99929.91;;;24.93;63.44
28628;BME280;15815;46.760;19.604;2022-08-26T06:21:01;99927.75;;;25.25;62.64
28628;BME280;15815;46.760;19.604;2022-08-26T06:23:35;99932.31;;;25.54;60.99
28628;BME280;15815;46.760;19.604;2022-08-26T06:26:19;99925.09;;;25.92;59.86
28628;BME280;15815;46.760;19.604;2022-08-26T06:28:44;99922.28;;;26.31;58.78
28628;BME280;15815;46.760;19.604;2022-08-26T06:31:09;99928.00;;;26.82;57.37
28628;BME280;15815;46.760;19.604;2022-08-26T06:33:35;99921.84;;;27.41;56.26
28628;BME280;15815;46.760;19.604;2022-08-26T06:36:00;99934.72;;;28.34;53.20
28628;BME280;15815;46.760;19.604;2022-08-26T06:38:26;99932.00;;;29.26;50.59
28628;BME280;15815;46.760;19.604;2022-08-26T06:40:52;99933.88;;;30.55;46.51
28628;BME280;15815;46.760;19.604;2022-08-26T06:43:20;99933.94;;;32.21;42.61
28628;BME280;15815;46.760;19.604;2022-08-26T06:45:47;99933.13;;;33.53;38.97
28628;BME280;15815;46.760;19.604;2022-08-26T06:48:15;99937.56;;;34.72;36.83
28628;BME280;15815;46.760;19.604;2022-08-26T06:50:41;99933.13;;;36.20;34.30
28628;BME280;15815;46.760;19.604;2022-08-26T06:53:08;99943.88;;;37.17;32.39
28628;BME280;15815;46.760;19.604;2022-08-26T06:55:44;99957.16;;;38.04;30.62
28628;BME280;15815;46.760;19.604;2022-08-26T06:58:11;99956.66;;;38.43;30.78
28628;BME280;15815;46.760;19.604;2022-08-26T07:00:37;99947.25;;;39.37;29.01
28628;BME280;15815;46.760;19.604;2022-08-26T07:03:04;99951.72;;;40.25;28.47
28628;BME280;15815;46.760;19.604;2022-08-26T07:05:30;99955.88;;;40.91;27.60
28628;BME280;15815;46.760;19.604;2022-08-26T07:07:55;99955.00;;;41.31;26.74
28628;BME280;15815;46.760;19.604;2022-08-26T07:10:22;99958.59;;;41.73;26.50
28628;BME280;15815;46.760;19.604;2022-08-26T07:12:47;99954.19;;;41.95;26.04
28628;BME280;15815;46.760;19.604;2022-08-26T07:15:13;99956.31;;;42.16;25.81
28628;BME280;15815;46.760;19.604;2022-08-26T07:17:39;99964.72;;;42.19;25.03
28628;BME280;15815;46.760;19.604;2022-08-26T07:20:05;99960.44;;;42.11;25.24
28628;BME280;15815;46.760;19.604;2022-08-26T07:22:32;99966.34;;;41.89;25.17
28628;BME280;15815;46.760;19.604;2022-08-26T07:24:58;99957.34;;;42.09;25.57
28628;BME280;15815;46.760;19.604;2022-08-26T07:27:23;99968.91;;;41.62;25.94
28628;BME280;15815;46.760;19.604;2022-08-26T07:29:48;99963.09;;;41.52;25.61
28628;BME280;15815;46.760;19.604;2022-08-26T07:32:14;99954.69;;;41.37;26.61
28628;BME280;15815;46.760;19.604;2022-08-26T07:34:41;99954.66;;;41.58;25.91
28628;BME280;15815;46.760;19.604;2022-08-26T07:37:06;99958.59;;;41.30;26.18
28628;BME280;15815;46.760;19.604;2022-08-26T07:39:32;99957.84;;;40.58;26.23
28628;BME280;15815;46.760;19.604;2022-08-26T07:41:59;99959.97;;;39.49;27.82
28628;BME280;15815;46.760;19.604;2022-08-26T07:44:25;99952.97;;;37.98;29.91
28628;BME280;15815;46.760;19.604;2022-08-26T07:46:52;99949.97;;;36.94;30.26
28628;BME280;15815;46.760;19.604;2022-08-26T07:49:17;99954.25;;;36.03;33.59
28628;BME280;15815;46.760;19.604;2022-08-26T07:51:43;99953.88;;;35.44;33.25
28628;BME280;15815;46.760;19.604;2022-08-26T07:54:08;99944.41;;;34.90;34.27
28628;BME280;15815;46.760;19.604;2022-08-26T07:56:34;99942.00;;;34.50;35.33
28628;BME280;15815;46.760;19.604;2022-08-26T07:58:59;99941.53;;;34.08;36.28
28628;BME280;15815;46.760;19.604;2022-08-26T08:01:25;99934.41;;;33.80;36.69
28628;BME280;15815;46.760;19.604;2022-08-26T08:03:52;99936.25;;;33.63;35.24
28628;BME280;15815;46.760;19.604;2022-08-26T08:06:19;99931.16;;;33.48;37.60
28628;BME280;15815;46.760;19.604;2022-08-26T08:08:44;99941.28;;;33.26;38.08
28628;BME280;15815;46.760;19.604;2022-08-26T08:11:10;99933.09;;;33.17;40.30
28628;BME280;15815;46.760;19.604;2022-08-26T08:13:36;99933.44;;;33.13;39.75
28628;BME280;15815;46.760;19.604;2022-08-26T08:16:02;99931.22;;;32.99;38.98
28628;BME280;15815;46.760;19.604;2022-08-26T08:18:27;99924.47;;;32.83;39.42
28628;BME280;15815;46.760;19.604;2022-08-26T08:20:53;99930.53;;;32.64;39.04
28628;BME280;15815;46.760;19.604;2022-08-26T08:23:19;99930.38;;;32.49;38.00
28628;BME280;15815;46.760;19.604;2022-08-26T08:25:44;99924.63;;;32.36;39.26
28628;BME280;15815;46.760;19.604;2022-08-26T08:28:09;99922.19;;;32.26;39.29
28628;BME280;15815;46.760;19.604;2022-08-26T08:30:37;99927.19;;;32.39;39.88
28628;BME280;15815;46.760;19.604;2022-08-26T08:33:03;99927.47;;;32.49;39.66
28628;BME280;15815;46.760;19.604;2022-08-26T08:35:28;99921.59;;;32.62;39.77
28628;BME280;15815;46.760;19.604;2022-08-26T08:37:53;99922.56;;;32.65;39.67
28628;BME280;15815;46.760;19.604;2022-08-26T08:40:22;99922.41;;;32.70;39.10
28628;BME280;15815;46.760;19.604;2022-08-26T08:43:06;99916.97;;;32.67;38.56
28628;BME280;15815;46.760;19.604;2022-08-26T08:45:37;99923.56;;;32.67;39.19
28628;BME280;15815;46.760;19.604;2022-08-26T08:50:48;99919.31;;;32.68;40.95
28628;BME280;15815;46.760;19.604;2022-08-26T08:53:36;99915.47;;;32.73;39.17
28628;BME280;15815;46.760;19.604;2022-08-26T08:56:23;99921.63;;;32.70;38.44
28628;BME280;15815;46.760;19.604;2022-08-26T08:59:25;99917.31;;;32.63;38.74
28628;BME280;15815;46.760;19.604;2022-08-26T09:06:45;99906.69;;;32.66;41.67
28628;BME280;15815;46.760;19.604;2022-08-26T09:09:18;99914.22;;;32.61;38.83
28628;BME280;15815;46.760;19.604;2022-08-26T09:11:45;99909.94;;;32.62;39.66
28628;BME280;15815;46.760;19.604;2022-08-26T09:14:10;99901.44;;;32.64;39.77
28628;BME280;15815;46.760;19.604;2022-08-26T09:16:50;99908.81;;;32.65;39.92
28628;BME280;15815;46.760;19.604;2022-08-26T09:19:39;99907.88;;;32.70;39.43
28628;BME280;15815;46.760;19.604;2022-08-26T09:22:06;99901.69;;;32.74;40.17
28628;BME280;15815;46.760;19.604;2022-08-26T09:24:33;99907.00;;;32.83;41.13
28628;BME280;15815;46.760;19.604;2022-08-26T09:27:00;99909.34;;;32.84;39.26
28628;BME280;15815;46.760;19.604;2022-08-26T09:29:31;99906.38;;;32.77;39.09
28628;BME280;15815;46.760;19.604;2022-08-26T09:32:18;99906.59;;;32.79;40.63
28628;BME280;15815;46.760;19.604;2022-08-26T09:37:32;99889.38;;;32.60;39.23
28628;BME280;15815;46.760;19.604;2022-08-26T09:42:43;99899.19;;;32.78;40.18
28628;BME280;15815;46.760;19.604;2022-08-26T09:45:09;99897.22;;;32.73;39.62
28628;BME280;15815;46.760;19.604;2022-08-26T09:47:38;99895.41;;;32.62;38.83
28628;BME280;15815;46.760;19.604;2022-08-26T09:52:30;99889.84;;;32.72;39.69
28628;BME280;15815;46.760;19.604;2022-08-26T09:55:18;99883.38;;;32.86;41.73
28628;BME280;15815;46.760;19.604;2022-08-26T09:57:45;99891.41;;;32.94;38.64
28628;BME280;15815;46.760;19.604;2022-08-26T10:00:30;99889.97;;;32.87;38.38
28628;BME280;15815;46.760;19.604;2022-08-26T10:02:58;99878.28;;;32.79;38.00
28628;BME280;15815;46.760;19.604;2022-08-26T10:08:27;99877.34;;;32.84;39.08
28628;BME280;15815;46.760;19.604;2022-08-26T10:10:55;99881.25;;;32.87;38.88
28628;BME280;15815;46.760;19.604;2022-08-26T10:13:40;99878.28;;;32.79;38.72
28628;BME280;15815;46.760;19.604;2022-08-26T10:18:45;99864.34;;;32.85;40.38
28628;BME280;15815;46.760;19.604;2022-08-26T10:21:20;99871.72;;;32.86;38.08
28628;BME280;15815;46.760;19.604;2022-08-26T10:23:50;99863.22;;;32.88;37.81
28628;BME280;15815;46.760;19.604;2022-08-26T10:29:24;99857.69;;;33.06;38.57
28628;BME280;15815;46.760;19.604;2022-08-26T10:31:58;99859.25;;;33.07;38.01
28628;BME280;15815;46.760;19.604;2022-08-26T10:34:25;99853.44;;;33.07;38.24
28628;BME280;15815;46.760;19.604;2022-08-26T10:37:03;99857.47;;;33.04;37.31
28628;BME280;15815;46.760;19.604;2022-08-26T10:42:28;99843.34;;;33.08;38.84
28628;BME280;15815;46.760;19.604;2022-08-26T10:45:03;99840.84;;;33.12;38.29
28628;BME280;15815;46.760;19.604;2022-08-26T10:47:37;99835.44;;;33.16;39.51
28628;BME280;15815;46.760;19.604;2022-08-26T10:50:04;99834.66;;;33.15;36.92
28628;BME280;15815;46.760;19.604;2022-08-26T10:52:55;99838.56;;;33.18;36.58
28628;BME280;15815;46.760;19.604;2022-08-26T10:55:39;99833.50;;;33.18;37.04
28628;BME280;15815;46.760;19.604;2022-08-26T10:58:30;99832.72;;;33.18;36.82
28628;BME280;15815;46.760;19.604;2022-08-26T11:01:13;99828.84;;;33.15;38.13
28628;BME280;15815;46.760;19.604;2022-08-26T11:06:46;99824.22;;;33.28;39.68
28628;BME280;15815;46.760;19.604;2022-08-26T11:09:41;99818.66;;;33.37;38.51
28628;BME280;15815;46.760;19.604;2022-08-26T11:12:07;99824.53;;;33.53;38.22
28628;BME280;15815;46.760;19.604;2022-08-26T11:14:34;99811.56;;;33.61;38.05
28628;BME280;15815;46.760;19.604;2022-08-26T11:17:00;99814.91;;;33.73;36.55
28628;BME280;15815;46.760;19.604;2022-08-26T11:22:02;99820.75;;;33.80;35.36
28628;BME280;15815;46.760;19.604;2022-08-26T11:30:01;99807.72;;;33.82;36.79
28628;BME280;15815;46.760;19.604;2022-08-26T11:35:02;99811.63;;;33.84;35.57
28628;BME280;15815;46.760;19.604;2022-08-26T11:37:34;99810.09;;;33.91;34.15
28628;BME280;15815;46.760;19.604;2022-08-26T11:40:00;99811.66;;;33.99;36.74
28628;BME280;15815;46.760;19.604;2022-08-26T11:42:45;99806.03;;;34.01;32.72
28628;BME280;15815;46.760;19.604;2022-08-26T11:45:22;99805.06;;;34.06;34.39
28628;BME280;15815;46.760;19.604;2022-08-26T11:47:49;99799.63;;;34.03;33.65
28628;BME280;15815;46.760;19.604;2022-08-26T11:50:26;99790.50;;;34.06;34.63
28628;BME280;15815;46.760;19.604;2022-08-26T11:52:53;99795.34;;;34.12;33.38
28628;BME280;15815;46.760;19.604;2022-08-26T11:55:19;99792.81;;;34.23;33.32
28628;BME280;15815;46.760;19.604;2022-08-26T11:57:50;99787.38;;;34.20;33.87
28628;BME280;15815;46.760;19.604;2022-08-26T12:00:25;99786.00;;;34.21;33.76
28628;BME280;15815;46.760;19.604;2022-08-26T12:02:52;99773.97;;;34.24;33.39
28628;BME280;15815;46.760;19.604;2022-08-26T12:05:24;99782.31;;;34.28;35.59
28628;BME280;15815;46.760;19.604;2022-08-26T12:07:52;99777.28;;;34.28;33.07
28628;BME280;15815;46.760;19.604;2022-08-26T12:10:28;99780.19;;;34.28;34.37
28628;BME280;15815;46.760;19.604;2022-08-26T12:12:56;99770.25;;;34.31;35.00
28628;BME280;15815;46.760;19.604;2022-08-26T12:15:23;99788.16;;;34.28;32.44
28628;BME280;15815;46.760;19.604;2022-08-26T12:17:49;99781.91;;;34.24;35.02
28628;BME280;15815;46.760;19.604;2022-08-26T12:20:34;99766.56;;;34.23;32.70
28628;BME280;15815;46.760;19.604;2022-08-26T12:26:19;99766.97;;;34.04;33.05
28628;BME280;15815;46.760;19.604;2022-08-26T12:28:56;99755.31;;;33.97;34.40
28628;BME280;15815;46.760;19.604;2022-08-26T12:31:26;99762.31;;;34.01;33.95
28628;BME280;15815;46.760;19.604;2022-08-26T12:33:52;99746.16;;;34.08;34.85
28628;BME280;15815;46.760;19.604;2022-08-26T12:36:34;99743.63;;;34.12;32.75
28628;BME280;15815;46.760;19.604;2022-08-26T12:39:11;99739.94;;;34.12;32.04
28628;BME280;15815;46.760;19.604;2022-08-26T12:41:40;99742.06;;;34.11;33.09
28628;BME280;15815;46.760;19.604;2022-08-26T12:44:06;99742.66;;;34.09;33.53
28628;BME280;15815;46.760;19.604;2022-08-26T12:46:32;99738.78;;;34.07;31.90
28628;BME280;15815;46.760;19.604;2022-08-26T12:48:58;99730.41;;;33.96;31.77
28628;BME280;15815;46.760;19.604;2022-08-26T12:51:28;99734.09;;;33.89;32.38
28628;BME280;15815;46.760;19.604;2022-08-26T12:53:54;99730.41;;;33.88;31.86
28628;BME280;15815;46.760;19.604;2022-08-26T12:56:34;99724.97;;;33.92;31.99
28628;BME280;15815;46.760;19.604;2022-08-26T12:59:20;99721.09;;;33.97;31.38
28628;BME280;15815;46.760;19.604;2022-08-26T13:01:46;99720.72;;;34.01;31.71
28628;BME280;15815;46.760;19.604;2022-08-26T13:04:39;99718.75;;;34.03;33.27
28628;BME280;15815;46.760;19.604;2022-08-26T13:07:19;99710.00;;;34.11;31.79
28628;BME280;15815;46.760;19.604;2022-08-26T13:09:46;99716.41;;;34.09;31.37
28628;BME280;15815;46.760;19.604;2022-08-26T13:12:31;99715.06;;;34.10;30.49
28628;BME280;15815;46.760;19.604;2022-08-26T13:14:57;99703.41;;;34.10;30.54
28628;BME280;15815;46.760;19.604;2022-08-26T13:17:25;99702.63;;;34.10;30.85
28628;BME280;15815;46.760;19.604;2022-08-26T13:19:51;99702.03;;;34.12;32.29
28628;BME280;15815;46.760;19.604;2022-08-26T13:22:20;99698.94;;;34.09;31.64
28628;BME280;15815;46.760;19.604;2022-08-26T13:24:49;99696.00;;;34.09;32.06
28628;BME280;15815;46.760;19.604;2022-08-26T13:27:15;99701.44;;;34.13;31.82
28628;BME280;15815;46.760;19.604;2022-08-26T13:29:44;99695.03;;;34.15;31.43
28628;BME280;15815;46.760;19.604;2022-08-26T13:32:09;99700.84;;;34.22;31.82
28628;BME280;15815;46.760;19.604;2022-08-26T13:34:36;99697.34;;;34.24;30.33
28628;BME280;15815;46.760;19.604;2022-08-26T13:37:01;99690.94;;;34.25;31.59
28628;BME280;15815;46.760;19.604;2022-08-26T13:39:27;99693.88;;;34.25;30.70
28628;BME280;15815;46.760;19.604;2022-08-26T13:41:52;99688.59;;;34.24;30.80
28628;BME280;15815;46.760;19.604;2022-08-26T13:44:18;99682.56;;;34.22;30.72
28628;BME280;15815;46.760;19.604;2022-08-26T13:46:44;99680.81;;;34.19;29.92
28628;BME280;15815;46.760;19.604;2022-08-26T13:49:09;99681.81;;;34.14;31.58